createdAt,value
2019-05-19T00:02:25.352Z,14.70
2019-05-19T00:04:52.449Z,14.70
2019-05-19T00:07:19.535Z,14.60
2019-05-19T00:09:47.587Z,14.70
2019-05-19T00:12:15.385Z,14.70
2019-05-19T00:14:42.507Z,14.70
2019-05-19T00:17:09.927Z,14.60
2019-05-19T00:19:37.118Z,14.50
2019-05-19T00:22:04.267Z,14.50
2019-05-19T00:24:31.495Z,14.50
2019-05-19T00:26:58.467Z,14.40
2019-05-19T00:29:25.447Z,14.30
2019-05-19T00:31:52.495Z,14.30
2019-05-19T00:34:19.573Z,14.30
2019-05-19T00:36:46.542Z,14.30
2019-05-19T00:39:13.623Z,14.30
2019-05-19T00:41:40.658Z,14.20
2019-05-19T00:44:08.254Z,14.20
2019-05-19T00:46:35.325Z,14.10
2019-05-19T00:49:02.414Z,14.10
2019-05-19T00:51:29.851Z,14.00
2019-05-19T00:53:57.578Z,14.00
2019-05-19T00:56:25.051Z,14.00
2019-05-19T00:58:54.157Z,13.90
2019-05-19T01:01:21.228Z,13.90
2019-05-19T01:03:48.244Z,13.90
2019-05-19T01:06:16.322Z,13.80
2019-05-19T01:08:43.475Z,13.80
2019-05-19T01:11:10.711Z,13.80
2019-05-19T01:13:38.386Z,13.70
2019-05-19T01:16:06.599Z,13.70
2019-05-19T01:18:33.756Z,13.70
2019-05-19T01:21:00.927Z,13.80
2019-05-19T01:23:29.369Z,13.80
2019-05-19T01:25:56.343Z,13.80
2019-05-19T01:28:23.610Z,13.80
2019-05-19T01:30:50.593Z,13.70
2019-05-19T01:33:17.600Z,13.80
2019-05-19T01:35:44.578Z,13.80
2019-05-19T01:38:11.913Z,13.80
2019-05-19T01:40:38.901Z,13.70
2019-05-19T01:43:06.329Z,13.70
2019-05-19T01:45:33.487Z,13.70
2019-05-19T01:48:00.666Z,13.70
2019-05-19T01:50:28.083Z,13.70
2019-05-19T01:52:55.080Z,13.70
2019-05-19T01:55:22.147Z,13.70
2019-05-19T01:57:49.122Z,13.80
2019-05-19T02:00:16.812Z,13.70
2019-05-19T02:02:43.886Z,13.60
2019-05-19T02:05:11.085Z,13.70
2019-05-19T02:07:39.279Z,13.60
2019-05-19T02:10:06.595Z,13.50
2019-05-19T02:12:33.898Z,13.60
2019-05-19T02:15:02.450Z,13.70
2019-05-19T02:17:31.046Z,13.70
2019-05-19T02:19:58.100Z,13.60
2019-05-19T02:22:25.402Z,13.60
2019-05-19T02:24:52.443Z,13.60
2019-05-19T02:27:19.482Z,13.60
2019-05-19T02:29:46.796Z,13.50
2019-05-19T02:32:14.368Z,13.50
2019-05-19T02:34:41.445Z,13.60
2019-05-19T02:37:08.561Z,13.60
2019-05-19T02:39:35.607Z,13.60
2019-05-19T02:42:03.343Z,13.60
2019-05-19T02:44:32.279Z,13.60
2019-05-19T02:47:00.716Z,13.60
2019-05-19T02:49:29.707Z,13.50
2019-05-19T02:51:58.486Z,13.50
2019-05-19T02:54:27.037Z,13.50
2019-05-19T02:56:56.033Z,13.50
2019-05-19T02:59:24.143Z,13.40
2019-05-19T03:02:02.854Z,13.40
2019-05-19T03:04:30.335Z,13.40
2019-05-19T03:06:57.409Z,13.40
2019-05-19T03:09:24.531Z,13.40
2019-05-19T03:11:51.566Z,13.30
2019-05-19T03:14:18.913Z,13.30
2019-05-19T03:16:45.865Z,13.30
2019-05-19T03:19:13.478Z,13.30
2019-05-19T03:21:40.839Z,13.30
2019-05-19T03:24:08.028Z,13.40
2019-05-19T03:26:35.100Z,13.20
2019-05-19T03:29:02.157Z,13.20
2019-05-19T03:31:53.976Z,13.10
2019-05-19T03:34:21.272Z,13.20
2019-05-19T03:36:48.289Z,13.10
2019-05-19T03:39:15.369Z,13.00
2019-05-19T03:41:42.427Z,12.90
2019-05-19T03:44:09.416Z,13.00
2019-05-19T03:46:36.412Z,12.90
2019-05-19T03:49:03.817Z,12.80
2019-05-19T03:51:32.022Z,12.80
2019-05-19T03:53:59.213Z,12.70
2019-05-19T03:56:26.467Z,12.70
2019-05-19T03:58:53.712Z,12.70
2019-05-19T04:01:21.211Z,12.70
2019-05-19T04:03:48.301Z,12.70
2019-05-19T04:06:15.407Z,12.60
2019-05-19T04:08:42.522Z,12.60
2019-05-19T04:11:09.576Z,12.70
2019-05-19T04:13:36.559Z,12.70
2019-05-19T04:16:03.658Z,12.70
2019-05-19T04:18:30.741Z,12.70
2019-05-19T04:20:57.895Z,12.80
2019-05-19T04:23:24.883Z,12.80
2019-05-19T04:25:51.852Z,12.70
2019-05-19T04:28:18.830Z,12.70
2019-05-19T04:30:45.948Z,12.80
2019-05-19T04:33:13.499Z,12.80
2019-05-19T04:35:40.602Z,12.80
2019-05-19T04:38:07.614Z,12.80
2019-05-19T04:40:34.675Z,12.80
2019-05-19T04:43:01.780Z,12.90
2019-05-19T04:45:29.003Z,12.90
2019-05-19T04:47:57.068Z,12.90
2019-05-19T04:50:24.063Z,13.00
2019-05-19T04:52:51.214Z,13.00
2019-05-19T04:55:18.455Z,12.90
2019-05-19T04:57:46.118Z,12.80
2019-05-19T05:00:13.446Z,12.80
2019-05-19T05:02:40.685Z,12.80
2019-05-19T05:05:08.391Z,12.80
2019-05-19T05:07:35.380Z,12.90
2019-05-19T05:10:03.197Z,12.90
2019-05-19T05:12:30.280Z,12.80
2019-05-19T05:14:57.255Z,12.70
2019-05-19T05:17:24.361Z,12.70
2019-05-19T05:19:51.447Z,12.80
2019-05-19T05:22:22.225Z,12.80
2019-05-19T05:24:48.461Z,13.00
2019-05-19T05:27:15.604Z,13.00
2019-05-19T05:29:43.694Z,13.10
2019-05-19T05:32:11.025Z,13.10
2019-05-19T05:34:38.397Z,12.90
2019-05-19T05:37:05.376Z,13.00
2019-05-19T05:39:32.582Z,13.00
2019-05-19T05:41:59.642Z,13.10
2019-05-19T05:44:26.677Z,13.00
2019-05-19T05:46:53.827Z,13.00
2019-05-19T05:49:20.866Z,13.00
2019-05-19T05:51:47.950Z,13.10
2019-05-19T05:54:15.168Z,13.20
2019-05-19T05:56:42.513Z,13.10
2019-05-19T05:59:09.474Z,13.30
2019-05-19T06:01:36.471Z,13.40
2019-05-19T06:04:03.659Z,13.40
2019-05-19T06:06:30.780Z,13.50
2019-05-19T06:08:58.019Z,13.50
2019-05-19T06:11:25.215Z,13.40
2019-05-19T06:13:52.374Z,13.50
2019-05-19T06:16:19.402Z,13.60
2019-05-19T06:18:46.840Z,13.60
2019-05-19T06:21:13.822Z,13.50
2019-05-19T06:23:40.799Z,13.40
2019-05-19T06:26:08.139Z,13.60
2019-05-19T06:28:35.557Z,13.70
2019-05-19T06:31:02.657Z,13.70
2019-05-19T06:33:30.532Z,13.70
2019-05-19T06:35:57.899Z,13.90
2019-05-19T06:38:25.257Z,14.10
2019-05-19T06:40:52.226Z,13.90
2019-05-19T06:43:19.426Z,14.00
2019-05-19T06:45:46.702Z,14.10
2019-05-19T06:48:13.889Z,14.20
2019-05-19T06:50:41.137Z,14.30
2019-05-19T06:53:13.944Z,14.40
2019-05-19T06:55:38.205Z,14.50
2019-05-19T06:58:05.522Z,14.50
2019-05-19T07:00:32.599Z,14.60
2019-05-19T07:02:59.667Z,14.60
2019-05-19T07:05:26.794Z,14.40
2019-05-19T07:07:54.591Z,14.40
2019-05-19T07:10:21.663Z,14.40
2019-05-19T07:12:48.651Z,14.90
2019-05-19T07:15:15.938Z,14.90
2019-05-19T07:17:43.205Z,15.00
2019-05-19T07:20:10.305Z,15.20
2019-05-19T07:22:37.818Z,15.20
2019-05-19T07:25:05.307Z,15.30
2019-05-19T07:27:32.980Z,15.10
2019-05-19T07:30:00.047Z,15.40
2019-05-19T07:32:27.366Z,15.50
2019-05-19T07:34:54.400Z,15.60
2019-05-19T07:37:21.475Z,16.00
2019-05-19T07:39:48.835Z,16.10
2019-05-19T07:42:15.879Z,16.10
2019-05-19T07:44:45.272Z,16.20
2019-05-19T07:47:12.211Z,16.30
2019-05-19T07:49:39.195Z,15.80
2019-05-19T07:52:06.492Z,15.80
2019-05-19T07:54:33.592Z,15.50
2019-05-19T07:57:00.615Z,15.50
2019-05-19T07:59:28.283Z,15.70
2019-05-19T08:01:56.231Z,15.80
2019-05-19T08:04:23.222Z,15.90
2019-05-19T08:06:50.444Z,15.90
2019-05-19T08:09:25.148Z,15.90
2019-05-19T08:11:52.240Z,15.90
2019-05-19T08:14:19.688Z,16.00
2019-05-19T08:16:47.027Z,15.90
2019-05-19T08:19:14.282Z,16.00
2019-05-19T08:21:41.262Z,16.00
2019-05-19T08:24:08.292Z,16.10
2019-05-19T08:26:35.651Z,16.30
2019-05-19T08:29:03.079Z,16.30
2019-05-19T08:31:30.202Z,16.30
2019-05-19T08:33:57.432Z,16.30
2019-05-19T08:36:24.779Z,16.60
2019-05-19T08:38:51.831Z,17.00
2019-05-19T08:41:19.106Z,17.20
2019-05-19T08:43:46.112Z,17.20
2019-05-19T08:46:14.876Z,17.00
2019-05-19T08:48:41.856Z,17.00
2019-05-19T08:51:09.042Z,17.10
2019-05-19T08:53:36.099Z,17.20
2019-05-19T08:56:03.299Z,17.60
2019-05-19T08:58:30.250Z,17.70
2019-05-19T09:00:57.281Z,17.70
2019-05-19T09:03:24.776Z,17.40
2019-05-19T09:05:51.763Z,17.50
2019-05-19T09:08:18.871Z,17.50
2019-05-19T09:10:47.011Z,17.70
2019-05-19T09:13:14.031Z,17.50
2019-05-19T09:15:41.129Z,17.50
2019-05-19T09:18:08.258Z,17.80
2019-05-19T09:20:35.544Z,17.90
2019-05-19T09:23:02.652Z,18.10
2019-05-19T09:25:29.821Z,18.20
2019-05-19T09:27:56.923Z,18.30
2019-05-19T09:30:23.922Z,18.40
2019-05-19T09:32:51.231Z,18.60
2019-05-19T09:35:18.442Z,18.60
2019-05-19T09:37:45.428Z,18.40
2019-05-19T09:40:13.628Z,18.20
2019-05-19T09:42:40.712Z,18.20
2019-05-19T09:45:08.304Z,18.20
2019-05-19T09:47:35.408Z,18.40
2019-05-19T09:50:04.381Z,18.60
2019-05-19T09:52:31.415Z,18.60
2019-05-19T09:54:58.467Z,18.50
2019-05-19T09:57:25.927Z,18.70
2019-05-19T09:59:53.007Z,18.80
2019-05-19T10:02:20.092Z,18.90
2019-05-19T10:04:47.310Z,19.10
2019-05-19T10:07:14.347Z,19.00
2019-05-19T10:09:58.371Z,18.70
2019-05-19T10:12:25.828Z,18.70
2019-05-19T10:14:52.930Z,18.90
2019-05-19T10:17:20.156Z,19.10
2019-05-19T10:19:47.144Z,19.10
2019-05-19T10:22:14.596Z,19.20
2019-05-19T10:24:56.326Z,19.10
2019-05-19T10:27:10.900Z,19.10
2019-05-19T10:29:38.313Z,19.00
2019-05-19T10:32:05.491Z,19.20
2019-05-19T10:34:33.515Z,19.50
2019-05-19T10:37:00.499Z,19.70
2019-05-19T10:39:27.671Z,19.80
2019-05-19T10:41:54.744Z,20.00
2019-05-19T10:44:21.997Z,20.30
2019-05-19T10:46:49.271Z,20.10
2019-05-19T10:49:16.632Z,20.10
2019-05-19T10:51:43.719Z,20.20
2019-05-19T10:54:11.041Z,20.20
2019-05-19T10:56:38.052Z,20.20
2019-05-19T10:59:05.714Z,20.30
2019-05-19T11:01:33.155Z,20.40
2019-05-19T11:04:00.366Z,20.60
2019-05-19T11:06:27.736Z,20.70
2019-05-19T11:09:00.007Z,20.60
2019-05-19T11:11:27.059Z,20.70
2019-05-19T11:13:54.018Z,20.90
2019-05-19T11:16:21.229Z,20.90
2019-05-19T11:18:48.563Z,21.00
2019-05-19T11:21:15.755Z,21.30
2019-05-19T11:23:42.918Z,21.50
2019-05-19T11:26:10.279Z,21.60
2019-05-19T11:28:37.229Z,21.90
2019-05-19T11:31:04.806Z,22.10
2019-05-19T11:33:31.787Z,22.20
2019-05-19T11:35:59.134Z,22.00
2019-05-19T11:38:26.110Z,22.10
2019-05-19T11:40:53.086Z,22.20
2019-05-19T11:43:20.519Z,22.20
2019-05-19T11:45:47.591Z,22.20
2019-05-19T11:48:14.760Z,22.30
2019-05-19T11:50:42.348Z,22.40
2019-05-19T11:53:09.683Z,22.40
2019-05-19T11:55:37.233Z,22.50
2019-05-19T11:58:04.544Z,22.50
2019-05-19T12:00:31.704Z,22.70
2019-05-19T12:02:59.720Z,22.80
2019-05-19T12:05:27.224Z,22.70
2019-05-19T12:07:54.645Z,22.90
2019-05-19T12:10:21.722Z,22.90
2019-05-19T12:12:49.451Z,23.00
2019-05-19T12:15:17.033Z,23.00
2019-05-19T12:17:44.361Z,23.10
2019-05-19T12:20:11.982Z,23.10
2019-05-19T12:22:39.207Z,23.00
2019-05-19T12:25:07.639Z,23.10
2019-05-19T12:27:35.409Z,23.10
2019-05-19T12:30:03.042Z,23.30
2019-05-19T12:32:30.392Z,23.30
2019-05-19T12:34:57.612Z,23.50
2019-05-19T12:37:25.413Z,23.60
2019-05-19T12:39:52.467Z,23.60
2019-05-19T12:42:19.746Z,23.70
2019-05-19T12:44:47.121Z,23.30
2019-05-19T12:47:14.447Z,23.40
2019-05-19T12:49:41.496Z,23.60
2019-05-19T12:52:08.798Z,23.70
2019-05-19T12:54:36.380Z,23.60
2019-05-19T12:57:03.540Z,23.70
2019-05-19T12:59:30.642Z,24.00
2019-05-19T13:01:57.723Z,24.30
2019-05-19T13:04:26.058Z,24.20
2019-05-19T13:06:53.125Z,24.00
2019-05-19T13:09:20.151Z,24.00
2019-05-19T13:11:47.506Z,23.70
2019-05-19T13:14:14.899Z,23.50
2019-05-19T13:16:42.628Z,23.20
2019-05-19T13:19:09.748Z,23.20
2019-05-19T13:21:37.023Z,23.30
2019-05-19T13:24:04.103Z,23.40
2019-05-19T13:26:31.125Z,23.40
2019-05-19T13:28:58.422Z,23.30
2019-05-19T13:31:26.110Z,23.20
2019-05-19T13:33:53.179Z,23.10
2019-05-19T13:36:20.473Z,23.30
2019-05-19T13:38:47.484Z,23.30
2019-05-19T13:41:14.451Z,23.30
2019-05-19T13:43:41.523Z,23.30
2019-05-19T13:46:08.563Z,23.30
2019-05-19T13:48:35.671Z,23.30
2019-05-19T13:51:02.871Z,23.30
2019-05-19T13:53:29.828Z,23.50
2019-05-19T13:55:57.535Z,23.50
2019-05-19T13:58:24.498Z,23.60
2019-05-19T14:00:51.542Z,23.60
2019-05-19T14:03:18.605Z,23.50
2019-05-19T14:05:45.778Z,23.40
2019-05-19T14:08:13.067Z,23.20
2019-05-19T14:10:40.627Z,23.10
2019-05-19T14:13:07.636Z,23.00
2019-05-19T14:15:34.731Z,22.80
2019-05-19T14:18:02.035Z,22.80
2019-05-19T14:20:29.947Z,23.10
2019-05-19T14:22:57.172Z,23.10
2019-05-19T14:25:24.218Z,23.40
2019-05-19T14:27:51.265Z,23.60
2019-05-19T14:30:18.390Z,23.70
2019-05-19T14:32:45.663Z,23.80
2019-05-19T14:35:12.879Z,23.60
2019-05-19T14:37:39.934Z,23.60
2019-05-19T14:40:07.588Z,23.30
2019-05-19T14:42:48.671Z,23.20
2019-05-19T14:45:16.191Z,23.30
2019-05-19T14:47:43.611Z,23.30
2019-05-19T14:50:12.661Z,23.40
2019-05-19T14:52:39.647Z,23.80
2019-05-19T14:55:06.840Z,24.30
2019-05-19T14:57:44.272Z,24.70
2019-05-19T15:00:03.997Z,25.20
2019-05-19T15:02:31.237Z,25.90
2019-05-19T15:04:59.059Z,26.20
2019-05-19T15:07:25.996Z,26.50
2019-05-19T15:09:54.203Z,26.70
2019-05-19T15:12:21.320Z,26.80
2019-05-19T15:14:48.823Z,26.90
2019-05-19T15:17:16.206Z,26.70
2019-05-19T15:19:43.151Z,26.80
2019-05-19T15:22:10.147Z,27.10
2019-05-19T15:24:37.384Z,26.30
2019-05-19T15:27:04.506Z,25.30
2019-05-19T15:29:31.686Z,24.90
2019-05-19T15:31:58.696Z,24.60
2019-05-19T15:34:25.691Z,24.40
2019-05-19T15:36:52.705Z,24.20
2019-05-19T15:39:19.675Z,24.20
2019-05-19T15:41:46.650Z,23.90
2019-05-19T15:44:13.926Z,23.90
2019-05-19T15:46:40.952Z,23.50
2019-05-19T15:49:08.835Z,23.20
2019-05-19T15:51:37.960Z,22.80
2019-05-19T15:54:05.233Z,22.50
2019-05-19T15:56:32.326Z,22.10
2019-05-19T15:58:59.381Z,22.20
2019-05-19T16:01:26.662Z,22.20
2019-05-19T16:03:54.001Z,22.00
2019-05-19T16:06:21.102Z,21.90
2019-05-19T16:08:48.380Z,22.30
2019-05-19T16:11:15.365Z,23.00
2019-05-19T16:13:42.398Z,23.70
2019-05-19T16:16:10.172Z,24.40
2019-05-19T16:18:37.296Z,24.90
2019-05-19T16:21:04.328Z,24.70
2019-05-19T16:23:31.756Z,24.60
2019-05-19T16:25:59.482Z,25.00
2019-05-19T16:28:30.765Z,25.40
2019-05-19T16:30:56.875Z,25.30
2019-05-19T16:33:24.044Z,25.40
2019-05-19T16:35:51.786Z,25.20
2019-05-19T16:38:20.288Z,25.20
2019-05-19T16:40:47.459Z,25.00
2019-05-19T16:43:14.808Z,24.70
2019-05-19T16:45:42.080Z,24.80
2019-05-19T16:48:09.567Z,25.10
2019-05-19T16:50:36.676Z,25.20
2019-05-19T16:53:03.762Z,24.70
2019-05-19T16:55:33.144Z,24.70
2019-05-19T16:58:00.658Z,24.50
2019-05-19T17:00:28.754Z,24.50
2019-05-19T17:02:57.379Z,24.50
2019-05-19T17:05:24.523Z,24.00
2019-05-19T17:07:51.582Z,23.80
2019-05-19T17:10:18.857Z,24.50
2019-05-19T17:12:45.874Z,24.50
2019-05-19T17:15:14.976Z,24.40
2019-05-19T17:17:42.024Z,24.10
2019-05-19T17:20:09.584Z,23.90
2019-05-19T17:22:37.082Z,23.70
2019-05-19T17:25:04.411Z,23.90
2019-05-19T17:27:31.500Z,24.30
2019-05-19T17:29:58.514Z,24.40
2019-05-19T17:32:27.118Z,24.30
2019-05-19T17:34:54.103Z,23.80
2019-05-19T17:37:21.662Z,23.40
2019-05-19T17:39:48.655Z,23.10
2019-05-19T17:42:15.761Z,22.90
2019-05-19T17:44:43.326Z,22.90
2019-05-19T17:47:10.836Z,23.00
2019-05-19T17:49:38.100Z,22.60
2019-05-19T17:52:06.379Z,22.90
2019-05-19T17:54:33.386Z,22.90
2019-05-19T17:57:01.585Z,22.40
2019-05-19T17:59:30.580Z,21.90
2019-05-19T18:01:57.667Z,22.20
2019-05-19T18:04:24.676Z,22.30
2019-05-19T18:06:51.742Z,22.50
2019-05-19T18:09:19.014Z,22.30
2019-05-19T18:11:46.023Z,22.00
2019-05-19T18:14:13.050Z,21.70
2019-05-19T18:16:40.124Z,21.30
2019-05-19T18:19:07.271Z,21.10
2019-05-19T18:21:34.650Z,20.90
2019-05-19T18:24:02.119Z,20.70
2019-05-19T18:26:29.257Z,20.60
2019-05-19T18:28:56.354Z,20.50
2019-05-19T18:31:23.476Z,20.30
2019-05-19T18:33:50.521Z,20.00
2019-05-19T18:36:17.552Z,19.90
2019-05-19T18:38:44.558Z,19.80
2019-05-19T18:41:11.555Z,19.80
2019-05-19T18:43:39.127Z,19.90
2019-05-19T18:46:06.332Z,19.60
2019-05-19T18:48:33.403Z,19.40
2019-05-19T18:51:00.347Z,19.30
2019-05-19T18:53:27.338Z,19.00
2019-05-19T18:55:54.649Z,18.90
2019-05-19T18:58:21.740Z,18.80
2019-05-19T19:00:48.927Z,18.80
2019-05-19T19:03:16.204Z,18.70
2019-05-19T19:05:43.198Z,18.60
2019-05-19T19:08:10.250Z,18.50
2019-05-19T19:10:37.783Z,18.40
2019-05-19T19:13:05.305Z,18.30
2019-05-19T19:15:32.789Z,18.20
2019-05-19T19:17:59.875Z,18.10
2019-05-19T19:20:26.856Z,17.90
2019-05-19T19:22:53.947Z,17.80
2019-05-19T19:25:20.956Z,17.70
2019-05-19T19:27:48.535Z,17.60
2019-05-19T19:30:16.172Z,17.50
2019-05-19T19:32:43.583Z,17.40
2019-05-19T19:35:10.996Z,17.40
2019-05-19T19:37:38.035Z,17.40
2019-05-19T19:40:06.079Z,17.30
2019-05-19T19:42:34.535Z,17.10
2019-05-19T19:45:01.532Z,17.10
2019-05-19T19:47:28.727Z,16.90
2019-05-19T19:49:55.726Z,17.00
2019-05-19T19:52:23.055Z,17.10
2019-05-19T19:54:50.028Z,16.90
2019-05-19T19:57:17.268Z,16.90
2019-05-19T19:59:44.334Z,16.90
2019-05-19T20:02:11.635Z,16.80
2019-05-19T20:04:38.670Z,16.60
2019-05-19T20:07:05.627Z,16.70
2019-05-19T20:09:33.052Z,16.60
2019-05-19T20:12:00.141Z,16.50
2019-05-19T20:14:27.384Z,16.40
2019-05-19T20:16:54.384Z,16.50
2019-05-19T20:19:21.587Z,16.40
2019-05-19T20:21:48.658Z,16.40
2019-05-19T20:24:15.656Z,16.40
2019-05-19T20:26:42.787Z,16.30
2019-05-19T20:29:11.215Z,16.20
2019-05-19T20:31:38.393Z,16.10
2019-05-19T20:34:06.090Z,16.10
2019-05-19T20:36:33.110Z,16.10
2019-05-19T20:39:01.175Z,16.20
2019-05-19T20:41:30.313Z,16.20
2019-05-19T20:43:57.307Z,16.10
2019-05-19T20:46:24.265Z,16.10
2019-05-19T20:48:51.354Z,16.00
2019-05-19T20:51:18.470Z,16.00
2019-05-19T20:53:45.585Z,16.00
2019-05-19T20:56:12.615Z,15.90
2019-05-19T20:58:39.718Z,15.90
2019-05-19T21:01:06.837Z,16.00
2019-05-19T21:03:34.272Z,15.90
2019-05-19T21:06:02.081Z,15.90
2019-05-19T21:08:29.500Z,16.00
2019-05-19T21:10:56.527Z,15.80
2019-05-19T21:13:23.945Z,15.90
2019-05-19T21:15:50.935Z,15.80
2019-05-19T21:18:18.011Z,15.70
2019-05-19T21:20:45.452Z,15.60
2019-05-19T21:23:12.421Z,15.70
2019-05-19T21:25:39.726Z,15.70
2019-05-19T21:28:07.067Z,15.60
2019-05-19T21:30:34.060Z,15.70
2019-05-19T21:33:01.413Z,15.60
2019-05-19T21:35:28.372Z,15.60
2019-05-19T21:37:56.625Z,15.70
2019-05-19T21:40:23.731Z,15.50
2019-05-19T21:42:50.694Z,15.40
2019-05-19T21:45:18.072Z,15.40
2019-05-19T21:47:45.208Z,15.60
2019-05-19T21:50:12.801Z,15.70
2019-05-19T21:52:40.051Z,15.60
2019-05-19T21:55:07.611Z,15.50
2019-05-19T21:57:34.581Z,15.40
2019-05-19T22:00:01.802Z,15.40
2019-05-19T22:02:29.372Z,15.40
2019-05-19T22:04:56.454Z,15.40
2019-05-19T22:07:33.809Z,15.50
2019-05-19T22:10:00.869Z,15.50
2019-05-19T22:12:27.927Z,15.40
2019-05-19T22:14:55.980Z,15.40
2019-05-19T22:17:23.347Z,15.40
2019-05-19T22:19:50.322Z,15.40
2019-05-19T22:22:17.551Z,15.40
2019-05-19T22:24:44.536Z,15.40
2019-05-19T22:27:11.490Z,15.30
2019-05-19T22:29:38.772Z,15.30
2019-05-19T22:32:05.730Z,15.20
2019-05-19T22:34:33.106Z,15.20
2019-05-19T22:37:00.491Z,15.20
2019-05-19T22:39:28.114Z,15.10
2019-05-19T22:41:55.182Z,15.10
2019-05-19T22:44:22.410Z,15.10
2019-05-19T22:46:49.412Z,15.10
2019-05-19T22:49:16.369Z,15.10
2019-05-19T22:51:43.374Z,15.00
2019-05-19T22:54:10.335Z,15.00
2019-05-19T22:56:37.400Z,15.00
2019-05-19T22:59:17.555Z,15.00
2019-05-19T23:01:33.537Z,15.00
2019-05-19T23:04:00.862Z,14.90
2019-05-19T23:06:28.183Z,14.80
2019-05-19T23:08:56.576Z,14.90
2019-05-19T23:11:23.858Z,14.80
2019-05-19T23:13:50.870Z,14.80
2019-05-19T23:16:18.164Z,14.70
2019-05-19T23:18:45.199Z,14.60
2019-05-19T23:21:12.165Z,14.50
2019-05-19T23:23:39.214Z,14.40
2019-05-19T23:26:06.302Z,14.50
2019-05-19T23:28:34.012Z,14.40
2019-05-19T23:31:01.275Z,14.30
2019-05-19T23:33:28.486Z,14.40
2019-05-19T23:35:55.474Z,14.30
2019-05-19T23:38:22.427Z,14.30
2019-05-19T23:40:49.777Z,14.20
2019-05-19T23:43:16.787Z,14.20
2019-05-19T23:45:43.779Z,14.20
2019-05-19T23:48:10.779Z,14.20
2019-05-19T23:50:37.866Z,14.20
2019-05-19T23:53:04.819Z,14.20
2019-05-19T23:55:32.072Z,14.20
2019-05-19T23:57:59.554Z,14.20
